Sheldon, MO (64784)

10:15 PM CST on February 26, 2015 (GMT -0600)
Irwin, MO | Change Station
CLOSE
Current Station
Personal Weather Station
Location: Lamar, MO
Elevation: 955 ft
Nearby Weather Stations

Elev 955 ft 37.60 °N, 94.29 °W | Updated 6 minutes ago

Clear
Clear
15.1 °F
Feels Like 4 °F
N
9.0
Wind Variable Wind from NNE
Gusts 14.0 mph

Today
High -- | Low -- °F
--% Chance of Precip.
Yesterday
High -- | Low -- °F
Precip. -- in
6:53 AM 6:07 PM
Waxing Gibbous, 65% visible
Pressure 30.51 in
Visibility 10.0 miles
Clouds Clear
Windchill 4 °F
Dew Point 3 °F
Humidity 60%
Rainfall 0.00 in
Snow Depth Not available.
UV 0 out of 12
Pollen .60 out of 12
Air Quality Not available.
Flu Activity Not available.
METAR KPTS 270355Z AUTO 02007KT 10SM CLR M08/M15 A3051 RMK AO2 T10761149

More Conditions Fewer Conditions

Pressure 30.51 in
Visibility 10.0 miles
Clouds Clear
Windchill 4 °F
Dew Point 3 °F
Humidity 60%
Rainfall 0.00 in
Snow Depth Not available.
UV 0 out of 12
Pollen .60 out of 12
Air Quality Not available.
Flu Activity Not available.
METAR KPTS 270355Z AUTO 02007KT 10SM CLR M08/M15 A3051 RMK AO2 T10761149

More Conditions Fewer Conditions

10-Day Weather Forecast

Almanac

Astronomy

Feb. 26, 2015 Rise Set
Actual Time
Civil Twilight
Nautical Twilight
Astronomical Twilight
Moon
Length of Visible Light
Length of Day
Tomorrow will be .
, % of the Moon is Illuminated

Today's Extremes

State Highs State Lows

Community

WunderPhotos

Upload Photos

1,800,620 photos uploaded!

WunderBlogs® & News

Nearby

Air Quality

  Air Quality AQ Index Pollutant
Not available.

Snow Depth

Station Depth Elevation

Earthquake Activity

City Distance Mag. Time & Date
Minimum magnitude displayed is 2.5.

Coastal Water Temperatures

Place Temperature

Nearby Weather Stations